Time;durP1;ratioP1;P1;durP2;ratioP2;P2;SDS_P1;SDS_P2;PMS_P1;PMS_P2;Temp;Humidity;BMP_temperature;BMP_pressure;BME280_temperature;BME280_humidity;BME280_pressure;Samples;Min_cycle;Max_cycle;Signal;HPM_P1;HPM_P2
2023/10/17 00:00:35;;;;;;;14.63;3.38;;;;;;;;;;5028402;28;20064;-75
2023/10/17 00:03:04;;;;;;;10.05;4.15;;;;;;;;;;5037353;28;20537;-74
2023/10/17 00:05:31;;;;;;;8.88;3.65;;;;;;;;;;5027194;28;20061;-74
2023/10/17 00:08:00;;;;;;;6.78;3.85;;;;;;;;;;5030559;28;20045;-73
2023/10/17 00:10:31;;;;;;;6.55;3.85;;;;;;;;;;5028218;28;20548;-72
2023/10/17 00:13:16;;;;;;;5.67;3.43;;;;;;;;;;5026315;28;20093;-74
2023/10/17 00:15:44;;;;;;;5.97;3.17;;;;;;;;;;5042495;28;20124;-73
2023/10/17 00:18:18;;;;;;;12.18;5.53;;;;;;;;;;5031899;28;20056;-74
2023/10/17 00:20:46;;;;;;;5.45;3.40;;;;;;;;;;5038164;28;20041;-75
2023/10/17 00:23:15;;;;;;;4.72;3.08;;;;;;;;;;5047485;28;20045;-74
2023/10/17 00:25:49;;;;;;;8.43;4.03;;;;;;;;;;5030234;28;20596;-74
2023/10/17 00:28:20;;;;;;;5.13;3.13;;;;;;;;;;5030602;28;20049;-73
2023/10/17 00:30:48;;;;;;;4.88;3.70;;;;;;;;;;5030556;28;20065;-74
2023/10/17 00:33:20;;;;;;;7.07;3.05;;;;;;;;;;5024335;28;20045;-75
2023/10/17 00:35:47;;;;;;;12.65;4.25;;;;;;;;;;5030693;28;20471;-74
2023/10/17 00:38:15;;;;;;;7.13;4.20;;;;;;;;;;5040402;28;20144;-75
2023/10/17 00:40:47;;;;;;;14.13;4.55;;;;;;;;;;5029201;28;20719;-75
2023/10/17 00:43:14;;;;;;;5.43;3.45;;;;;;;;;;5037698;28;20049;-74
2023/10/17 00:45:41;;;;;;;5.50;3.38;;;;;;;;;;5030453;28;20102;-74
2023/10/17 00:48:08;;;;;;;8.30;3.78;;;;;;;;;;5034626;28;20041;-75
2023/10/17 00:50:38;;;;;;;5.22;3.50;;;;;;;;;;5038716;28;20493;-74
2023/10/17 00:53:06;;;;;;;7.65;3.85;;;;;;;;;;5028080;28;20537;-73
2023/10/17 00:55:35;;;;;;;7.07;3.42;;;;;;;;;;5038039;28;20417;-73
2023/10/17 00:58:02;;;;;;;5.93;3.83;;;;;;;;;;5032792;28;20046;-75
2023/10/17 01:00:39;;;;;;;6.50;3.75;;;;;;;;;;5041257;28;20961;-73
2023/10/17 01:03:10;;;;;;;9.25;4.05;;;;;;;;;;5034183;28;20512;-76
2023/10/17 01:05:57;;;;;;;7.93;3.97;;;;;;;;;;5029287;28;20053;-74
2023/10/17 01:08:29;;;;;;;7.45;3.80;;;;;;;;;;5040256;28;20053;-74
2023/10/17 01:10:55;;;;;;;5.82;3.70;;;;;;;;;;5033425;28;20129;-75
2023/10/17 01:13:26;;;;;;;9.60;4.30;;;;;;;;;;5036405;28;20053;-74
2023/10/17 01:15:53;;;;;;;6.95;3.92;;;;;;;;;;5028650;28;20041;-75
2023/10/17 01:18:19;;;;;;;10.77;4.53;;;;;;;;;;5044432;28;20159;-74
2023/10/17 01:20:46;;;;;;;7.82;4.43;;;;;;;;;;5033620;28;20049;-75
2023/10/17 01:23:13;;;;;;;8.38;3.97;;;;;;;;;;5044067;28;20143;-75
2023/10/17 01:25:41;;;;;;;6.78;4.18;;;;;;;;;;5039145;28;20133;-74
2023/10/17 01:28:08;;;;;;;7.32;3.90;;;;;;;;;;5030681;28;20222;-75
2023/10/17 01:30:34;;;;;;;8.80;3.83;;;;;;;;;;5033661;28;20136;-75
2023/10/17 01:33:01;;;;;;;9.55;4.47;;;;;;;;;;5041084;28;20040;-74
2023/10/17 01:35:28;;;;;;;6.85;4.03;;;;;;;;;;5045855;28;20048;-75
2023/10/17 01:37:55;;;;;;;9.18;4.50;;;;;;;;;;5042130;28;20088;-75
2023/10/17 01:40:26;;;;;;;8.43;4.30;;;;;;;;;;5041722;28;20049;-74
2023/10/17 01:42:56;;;;;;;11.90;4.57;;;;;;;;;;5044960;28;20132;-74
2023/10/17 01:45:25;;;;;;;7.07;4.28;;;;;;;;;;5033770;28;20048;-74
2023/10/17 01:47:51;;;;;;;7.20;4.50;;;;;;;;;;5034570;28;20107;-74
2023/10/17 01:50:23;;;;;;;5.47;4.13;;;;;;;;;;5032936;28;20045;-75
2023/10/17 01:52:53;;;;;;;9.77;4.65;;;;;;;;;;5035531;28;20041;-73
2023/10/17 01:55:25;;;;;;;9.18;4.50;;;;;;;;;;5029423;28;20465;-76
2023/10/17 01:57:54;;;;;;;5.68;3.80;;;;;;;;;;5036320;28;20141;-74
2023/10/17 02:00:24;;;;;;;11.40;4.07;;;;;;;;;;5033366;28;20446;-76
2023/10/17 02:02:53;;;;;;;7.82;4.07;;;;;;;;;;5043814;28;20057;-76
2023/10/17 02:05:21;;;;;;;8.20;5.47;;;;;;;;;;5038740;28;20045;-76
2023/10/17 02:07:48;;;;;;;8.18;4.25;;;;;;;;;;5040228;28;20049;-76
2023/10/17 02:10:28;;;;;;;10.02;5.05;;;;;;;;;;5028940;28;20136;-74
2023/10/17 02:12:55;;;;;;;7.50;3.97;;;;;;;;;;5043352;28;20044;-75
2023/10/17 02:15:24;;;;;;;6.57;4.88;;;;;;;;;;5033852;28;20068;-74
2023/10/17 02:17:52;;;;;;;8.10;4.47;;;;;;;;;;5040500;28;20057;-75
2023/10/17 02:22:55;;;;;;;6.10;4.35;;;;;;;;;;5035928;28;20525;-75
2023/10/17 02:25:28;;;;;;;8.52;4.18;;;;;;;;;;5041688;28;20055;-76
2023/10/17 02:27:54;;;;;;;7.03;4.30;;;;;;;;;;5042977;28;20133;-76
2023/10/17 02:30:20;;;;;;;13.95;4.60;;;;;;;;;;5032581;28;20554;-76
2023/10/17 02:32:53;;;;;;;6.95;4.38;;;;;;;;;;5028465;28;20053;-74
2023/10/17 02:38:16;;;;;;;5.95;3.72;;;;;;;;;;5032814;28;20072;-76
2023/10/17 02:40:51;;;;;;;6.45;4.43;;;;;;;;;;5033650;28;20136;-74
2023/10/17 02:43:17;;;;;;;8.43;4.25;;;;;;;;;;5040166;28;20045;-77
2023/10/17 02:45:43;;;;;;;7.78;3.92;;;;;;;;;;5042145;28;20176;-75
2023/10/17 02:48:26;;;;;;;7.55;4.05;;;;;;;;;;5047634;28;20570;-77
2023/10/17 02:50:58;;;;;;;4.72;3.47;;;;;;;;;;5033417;28;20049;-76
2023/10/17 02:53:29;;;;;;;8.35;4.00;;;;;;;;;;5043465;28;20041;-74
2023/10/17 02:55:57;;;;;;;7.32;4.80;;;;;;;;;;5032489;28;20129;-75
2023/10/17 02:58:23;;;;;;;8.55;4.03;;;;;;;;;;5034640;28;20132;-74
2023/10/17 03:00:53;;;;;;;6.68;4.70;;;;;;;;;;5032122;28;20119;-73
2023/10/17 03:03:19;;;;;;;8.38;3.97;;;;;;;;;;5030377;28;20057;-75
2023/10/17 03:05:53;;;;;;;7.10;4.97;;;;;;;;;;5036015;28;20351;-74
2023/10/17 03:08:20;;;;;;;8.70;4.53;;;;;;;;;;5046094;28;20045;-75
2023/10/17 03:10:52;;;;;;;7.38;4.68;;;;;;;;;;5040403;28;20111;-75
2023/10/17 03:15:57;;;;;;;7.43;4.95;;;;;;;;;;5037176;28;20090;-75
2023/10/17 03:18:23;;;;;;;6.78;4.38;;;;;;;;;;5031337;28;20049;-75
2023/10/17 03:20:50;;;;;;;10.60;5.15;;;;;;;;;;5039825;28;20044;-75
2023/10/17 03:23:20;;;;;;;5.47;3.90;;;;;;;;;;5030355;28;20511;-75
2023/10/17 03:25:47;;;;;;;5.75;3.80;;;;;;;;;;5037867;28;20087;-75
2023/10/17 03:28:15;;;;;;;7.10;4.88;;;;;;;;;;5043537;28;20056;-75
2023/10/17 03:30:42;;;;;;;7.05;4.32;;;;;;;;;;5030816;28;20041;-75
2023/10/17 03:33:13;;;;;;;6.65;4.00;;;;;;;;;;5033166;28;20051;-77
2023/10/17 03:36:04;;;;;;;16.95;4.50;;;;;;;;;;5040592;28;20090;-75
2023/10/17 03:38:33;;;;;;;7.10;4.50;;;;;;;;;;5035482;28;20073;-75
2023/10/17 03:41:15;;;;;;;9.40;4.90;;;;;;;;;;5032423;28;20559;-75
2023/10/17 03:43:51;;;;;;;6.18;4.07;;;;;;;;;;5031580;28;20084;-75
2023/10/17 03:46:18;;;;;;;7.53;4.95;;;;;;;;;;5028128;28;20805;-76
2023/10/17 03:48:57;;;;;;;9.10;4.57;;;;;;;;;;5061854;28;20045;-75
2023/10/17 03:51:27;;;;;;;10.32;4.50;;;;;;;;;;5033157;28;20136;-76
2023/10/17 03:53:54;;;;;;;8.85;4.80;;;;;;;;;;5029591;28;20046;-75
2023/10/17 03:56:23;;;;;;;9.70;4.55;;;;;;;;;;5028695;28;20512;-75
2023/10/17 03:58:57;;;;;;;6.22;4.47;;;;;;;;;;5027593;28;20124;-76
2023/10/17 04:01:23;;;;;;;7.82;4.10;;;;;;;;;;5035731;28;20073;-73
2023/10/17 04:03:53;;;;;;;7.93;4.40;;;;;;;;;;5040248;28;20041;-76
2023/10/17 04:06:34;;;;;;;8.10;3.80;;;;;;;;;;5047058;28;20049;-75
2023/10/17 04:11:52;;;;;;;16.52;4.45;;;;;;;;;;5032553;28;20065;-74
2023/10/17 04:14:25;;;;;;;7.28;4.63;;;;;;;;;;5032029;28;20107;-75
2023/10/17 04:16:52;;;;;;;7.15;5.10;;;;;;;;;;5031236;28;20072;-75
2023/10/17 04:19:20;;;;;;;13.30;6.00;;;;;;;;;;5037225;28;20046;-76
2023/10/17 04:22:01;;;;;;;9.10;5.10;;;;;;;;;;5027576;28;20125;-75
2023/10/17 04:24:45;;;;;;;5.82;3.90;;;;;;;;;;5028373;28;20539;-74
2023/10/17 04:29:44;;;;;;;6.60;4.75;;;;;;;;;;5042318;28;20057;-75
2023/10/17 04:32:13;;;;;;;7.95;4.05;;;;;;;;;;5036011;28;20049;-75
2023/10/17 04:34:46;;;;;;;7.90;4.65;;;;;;;;;;5038435;28;20049;-76
2023/10/17 04:37:16;;;;;;;9.18;4.45;;;;;;;;;;5042976;28;20053;-74
2023/10/17 04:39:50;;;;;;;8.00;5.30;;;;;;;;;;5027443;28;20061;-75
2023/10/17 04:42:25;;;;;;;12.85;5.13;;;;;;;;;;5024028;28;20044;-74
2023/10/17 04:44:52;;;;;;;7.22;4.60;;;;;;;;;;5034017;28;20096;-75
2023/10/17 04:49:53;;;;;;;8.75;5.07;;;;;;;;;;5033828;28;20057;-76
2023/10/17 04:52:30;;;;;;;7.05;4.32;;;;;;;;;;5026095;28;20498;-77
2023/10/17 04:55:17;;;;;;;10.40;4.78;;;;;;;;;;5034473;28;20458;-72
2023/10/17 04:57:59;;;;;;;8.02;4.53;;;;;;;;;;5029457;28;20114;-75
2023/10/17 05:06:15;;;;;;;9.35;5.85;;;;;;;;;;5055026;28;20551;-76
2023/10/17 05:09:00;;;;;;;8.60;5.20;;;;;;;;;;5032533;28;20049;-75
2023/10/17 06:16:51;;;;;;;9.20;5.53;;;;;;;;;;5037013;28;20242;-75
2023/10/17 06:17:56;;;;;;;8.95;4.80;;;;;;;;;;5038566;28;20059;-77
2023/10/17 06:21:06;;;;;;;9.93;4.80;;;;;;;;;;5034376;28;20045;-76
2023/10/17 06:23:24;;;;;;;6.68;4.70;;;;;;;;;;5039059;28;20052;-77
2023/10/17 06:31:10;;;;;;;8.43;5.18;;;;;;;;;;5035368;28;20140;-76
2023/10/17 06:33:36;;;;;;;11.70;4.65;;;;;;;;;;5041149;28;20182;-76
2023/10/17 06:36:25;;;;;;;11.30;5.75;;;;;;;;;;5035651;28;20049;-75
2023/10/17 06:38:52;;;;;;;12.48;5.07;;;;;;;;;;5037116;28;20041;-76
2023/10/17 06:41:27;;;;;;;9.07;5.05;;;;;;;;;;5035108;28;20128;-77
2023/10/17 06:43:56;;;;;;;9.65;6.57;;;;;;;;;;5043645;28;20057;-77
2023/10/17 06:46:30;;;;;;;11.27;4.68;;;;;;;;;;5034940;28;20137;-75
2023/10/17 06:49:04;;;;;;;11.27;5.13;;;;;;;;;;5037368;28;20049;-75
2023/10/17 06:51:39;;;;;;;8.57;4.70;;;;;;;;;;5031231;28;20103;-77
2023/10/17 06:54:06;;;;;;;8.52;5.22;;;;;;;;;;5033324;28;20582;-76
2023/10/17 06:56:41;;;;;;;15.57;4.57;;;;;;;;;;5036165;28;20053;-74
2023/10/17 06:59:41;;;;;;;7.78;4.15;;;;;;;;;;5029495;28;20046;-74
2023/10/17 07:02:10;;;;;;;12.45;4.70;;;;;;;;;;5030550;28;20103;-75
2023/10/17 07:04:37;;;;;;;8.20;4.20;;;;;;;;;;5033927;28;20136;-76
2023/10/17 07:07:04;;;;;;;6.28;3.95;;;;;;;;;;5033234;28;20128;-75
2023/10/17 07:09:37;;;;;;;8.63;4.18;;;;;;;;;;5030774;28;20735;-76
2023/10/17 07:12:05;;;;;;;8.13;3.90;;;;;;;;;;5028708;28;20148;-77
2023/10/17 07:14:31;;;;;;;8.13;3.80;;;;;;;;;;5033295;28;20099;-76
2023/10/17 07:17:00;;;;;;;8.13;4.57;;;;;;;;;;5030329;28;20128;-75
2023/10/17 07:22:05;;;;;;;10.73;3.63;;;;;;;;;;5028441;28;20140;-77
2023/10/17 07:24:33;;;;;;;9.20;4.38;;;;;;;;;;5035046;28;20045;-78
2023/10/17 07:27:01;;;;;;;7.20;4.30;;;;;;;;;;5039070;28;20053;-76
2023/10/17 07:29:33;;;;;;;7.70;4.10;;;;;;;;;;5029579;28;20480;-77
2023/10/17 07:32:09;;;;;;;8.32;4.38;;;;;;;;;;5028514;28;20073;-74
2023/10/17 07:34:36;;;;;;;9.02;3.90;;;;;;;;;;5028571;28;20057;-77
2023/10/17 07:40:41;;;;;;;7.00;4.00;;;;;;;;;;5028320;28;20661;-76
2023/10/17 07:42:45;;;;;;;6.40;3.80;;;;;;;;;;5038957;28;20041;-77
2023/10/17 07:45:16;;;;;;;6.22;4.00;;;;;;;;;;5062035;28;20052;-77
2023/10/17 07:47:51;;;;;;;7.30;4.15;;;;;;;;;;5046835;28;20139;-78
2023/10/17 07:50:18;;;;;;;7.68;4.18;;;;;;;;;;5034225;28;20050;-77
2023/10/17 07:52:50;;;;;;;5.82;4.15;;;;;;;;;;5037263;28;20482;-75
2023/10/17 07:55:18;;;;;;;8.60;4.13;;;;;;;;;;5032896;28;20077;-76
2023/10/17 07:57:46;;;;;;;13.25;4.78;;;;;;;;;;5045870;28;20049;-77
2023/10/17 08:00:33;;;;;;;10.00;4.40;;;;;;;;;;5027145;28;20123;-77
2023/10/17 08:03:00;;;;;;;10.88;4.93;;;;;;;;;;5031383;28;20049;-77
2023/10/17 08:05:37;;;;;;;7.68;5.15;;;;;;;;;;5037056;28;20049;-77
2023/10/17 08:08:08;;;;;;;9.02;5.15;;;;;;;;;;5040878;28;20049;-76
2023/10/17 08:10:35;;;;;;;10.25;4.18;;;;;;;;;;5031937;28;20052;-77
2023/10/17 08:13:02;;;;;;;10.82;4.70;;;;;;;;;;5043631;28;20458;-76
2023/10/17 08:16:23;;;;;;;8.45;4.28;;;;;;;;;;5036009;28;20808;-77
2023/10/17 08:18:22;;;;;;;9.90;3.90;;;;;;;;;;5044165;28;20054;-77
2023/10/17 08:23:26;;;;;;;10.25;4.80;;;;;;;;;;5032544;28;20041;-78
2023/10/17 08:26:03;;;;;;;7.93;4.57;;;;;;;;;;5041520;28;20056;-77
2023/10/17 08:31:24;;;;;;;6.78;4.95;;;;;;;;;;5031349;28;20139;-75
2023/10/17 08:36:43;;;;;;;8.20;3.88;;;;;;;;;;5042143;28;20045;-78
2023/10/17 08:42:05;;;;;;;7.45;3.67;;;;;;;;;;5036091;28;20132;-76
2023/10/17 08:44:35;;;;;;;9.25;2.75;;;;;;;;;;5039116;28;20129;-75
2023/10/17 08:47:03;;;;;;;4.28;2.35;;;;;;;;;;5037171;28;20091;-75
2023/10/17 08:49:32;;;;;;;5.75;2.35;;;;;;;;;;5030367;28;20042;-75
2023/10/17 08:51:59;;;;;;;6.38;2.83;;;;;;;;;;5027371;28;20124;-77
2023/10/17 08:54:28;;;;;;;6.00;2.60;;;;;;;;;;5045137;28;20049;-75
2023/10/17 08:56:59;;;;;;;8.45;2.58;;;;;;;;;;5037336;28;20053;-74
2023/10/17 09:05:11;;;;;;;8.73;2.20;;;;;;;;;;5032593;28;20626;-77
2023/10/17 09:07:43;;;;;;;5.18;2.00;;;;;;;;;;5039420;28;20414;-77
2023/10/17 09:10:17;;;;;;;4.55;2.38;;;;;;;;;;5065194;28;20052;-76
2023/10/17 09:12:43;;;;;;;5.75;2.67;;;;;;;;;;5051762;28;20133;-77
2023/10/17 09:15:30;;;;;;;2.92;1.98;;;;;;;;;;5036603;28;20052;-77
2023/10/17 09:18:09;;;;;;;4.07;2.50;;;;;;;;;;5035584;28;20080;-74
2023/10/17 09:20:36;;;;;;;7.63;2.30;;;;;;;;;;5041235;28;20056;-76
2023/10/17 09:23:04;;;;;;;7.18;2.13;;;;;;;;;;5030897;28;20575;-75
2023/10/17 09:25:31;;;;;;;4.95;2.40;;;;;;;;;;5034218;28;20056;-75
2023/10/17 09:27:59;;;;;;;4.97;2.47;;;;;;;;;;5049146;28;20052;-75
2023/10/17 09:30:26;;;;;;;9.50;4.03;;;;;;;;;;5047395;28;20056;-75
2023/10/17 09:32:53;;;;;;;4.28;2.65;;;;;;;;;;5038509;28;20099;-78
2023/10/17 09:35:20;;;;;;;4.55;1.98;;;;;;;;;;5035049;28;20045;-76
2023/10/17 09:37:50;;;;;;;6.75;2.65;;;;;;;;;;5051909;28;20088;-77
2023/10/17 09:40:33;;;;;;;8.65;2.28;;;;;;;;;;5059256;28;20140;-75
2023/10/17 09:43:03;;;;;;;11.00;2.47;;;;;;;;;;5030434;28;20081;-76
2023/10/17 09:45:33;;;;;;;3.28;1.73;;;;;;;;;;5043787;28;20449;-77
2023/10/17 09:48:04;;;;;;;7.88;2.90;;;;;;;;;;5042490;28;20041;-76
2023/10/17 09:50:37;;;;;;;9.40;1.75;;;;;;;;;;5036104;28;20076;-76
2023/10/17 09:53:28;;;;;;;7.55;2.40;;;;;;;;;;5041677;28;20531;-75
2023/10/17 09:55:56;;;;;;;3.90;1.80;;;;;;;;;;5031539;28;20053;-75
2023/10/17 09:58:28;;;;;;;7.90;2.10;;;;;;;;;;5032235;28;20462;-77
2023/10/17 10:01:18;;;;;;;7.75;2.30;;;;;;;;;;5037535;28;20379;-76
2023/10/17 10:03:47;;;;;;;3.55;1.63;;;;;;;;;;5041001;28;20045;-76
2023/10/17 10:06:23;;;;;;;3.75;1.63;;;;;;;;;;5033785;28;20053;-75
2023/10/17 10:08:56;;;;;;;4.63;1.70;;;;;;;;;;5043104;28;20127;-73
2023/10/17 10:11:41;;;;;;;5.07;1.55;;;;;;;;;;5041731;28;20045;-77
2023/10/17 10:14:11;;;;;;;5.45;2.00;;;;;;;;;;5039761;28;20081;-76
2023/10/17 10:16:53;;;;;;;4.85;1.83;;;;;;;;;;5044152;28;20132;-77
2023/10/17 10:19:23;;;;;;;7.20;2.20;;;;;;;;;;5039390;28;20081;-72
2023/10/17 10:22:00;;;;;;;3.13;1.10;;;;;;;;;;5036856;28;20041;-72
2023/10/17 10:24:26;;;;;;;3.45;1.63;;;;;;;;;;5035004;28;20045;-75
2023/10/17 10:27:14;;;;;;;9.13;1.98;;;;;;;;;;5036136;28;20037;-76
2023/10/17 10:29:44;;;;;;;5.85;1.50;;;;;;;;;;5040884;28;20045;-74
2023/10/17 10:32:33;;;;;;;9.20;3.38;;;;;;;;;;5038912;28;20523;-75
2023/10/17 10:35:01;;;;;;;5.55;2.40;;;;;;;;;;5029551;28;20041;-74
2023/10/17 10:37:28;;;;;;;6.93;1.45;;;;;;;;;;5037266;28;20124;-75
2023/10/17 10:40:24;;;;;;;8.90;3.20;;;;;;;;;;5037656;28;20524;-74
2023/10/17 10:42:52;;;;;;;3.15;1.15;;;;;;;;;;5033790;28;20046;-77
2023/10/17 10:45:31;;;;;;;2.95;1.67;;;;;;;;;;5035202;28;20064;-74
2023/10/17 10:47:59;;;;;;;6.18;1.48;;;;;;;;;;5032673;28;20041;-77
2023/10/17 10:50:29;;;;;;;6.20;1.42;;;;;;;;;;5033094;28;20046;-76
2023/10/17 10:52:57;;;;;;;4.75;1.23;;;;;;;;;;5038824;28;20611;-76
2023/10/17 10:55:24;;;;;;;5.47;1.50;;;;;;;;;;5036078;28;20531;-74
2023/10/17 10:57:52;;;;;;;2.65;1.17;;;;;;;;;;5037545;28;20589;-74
2023/10/17 11:00:18;;;;;;;4.28;1.55;;;;;;;;;;5031772;28;20643;-75
2023/10/17 11:02:46;;;;;;;4.15;1.70;;;;;;;;;;5038898;28;20051;-75
2023/10/17 11:05:15;;;;;;;5.03;1.17;;;;;;;;;;5031102;28;20057;-76
2023/10/17 11:07:42;;;;;;;3.70;1.35;;;;;;;;;;5033765;28;20543;-76
2023/10/17 11:10:18;;;;;;;41.17;16.38;;;;;;;;;;5035190;28;20049;-75
2023/10/17 11:12:54;;;;;;;8.07;1.25;;;;;;;;;;5034224;28;20072;-74
2023/10/17 11:15:30;;;;;;;128.95;67.43;;;;;;;;;;5037023;28;20044;-76
2023/10/17 11:18:06;;;;;;;6.25;2.10;;;;;;;;;;5033332;28;20114;-73
2023/10/17 11:20:36;;;;;;;6.78;1.70;;;;;;;;;;5029642;28;20049;-74
2023/10/17 11:23:05;;;;;;;3.17;1.23;;;;;;;;;;5037775;28;20171;-73
2023/10/17 11:25:34;;;;;;;3.20;1.17;;;;;;;;;;5031379;28;20637;-74
2023/10/17 11:28:06;;;;;;;6.65;1.20;;;;;;;;;;5030078;28;20041;-71
2023/10/17 11:30:42;;;;;;;2.25;1.00;;;;;;;;;;5035548;28;20402;-72
2023/10/17 11:33:11;;;;;;;2.42;0.95;;;;;;;;;;5043631;28;20132;-73
2023/10/17 11:35:47;;;;;;;4.82;0.90;;;;;;;;;;5032600;28;20048;-72
2023/10/17 11:38:41;;;;;;;3.92;1.00;;;;;;;;;;5034382;28;20098;-70
2023/10/17 11:41:15;;;;;;;3.55;1.17;;;;;;;;;;5036791;28;20057;-71
2023/10/17 11:43:50;;;;;;;1.77;0.93;;;;;;;;;;5032098;28;20051;-73
2023/10/17 11:46:28;;;;;;;5.30;1.00;;;;;;;;;;5028376;28;20756;-72
2023/10/17 11:49:20;;;;;;;6.88;1.50;;;;;;;;;;5031771;28;20191;-70
2023/10/17 11:51:48;;;;;;;6.53;1.20;;;;;;;;;;5030141;28;20059;-74
2023/10/17 11:54:15;;;;;;;2.15;0.80;;;;;;;;;;5027945;28;20067;-71
2023/10/17 11:57:09;;;;;;;5.03;1.25;;;;;;;;;;5039344;28;20049;-70
2023/10/17 11:59:36;;;;;;;2.25;1.35;;;;;;;;;;5032908;28;20049;-73
2023/10/17 12:02:03;;;;;;;2.45;1.02;;;;;;;;;;5030963;28;20043;-68
2023/10/17 12:04:30;;;;;;;28.80;13.10;;;;;;;;;;5027389;28;20634;-67
2023/10/17 12:06:57;;;;;;;7.00;2.80;;;;;;;;;;5029239;28;20049;-71
2023/10/17 12:09:24;;;;;;;2.88;1.10;;;;;;;;;;5031464;28;20065;-68
2023/10/17 12:11:52;;;;;;;4.72;1.40;;;;;;;;;;5028571;28;20405;-69
2023/10/17 12:14:21;;;;;;;4.43;1.27;;;;;;;;;;5035319;28;20053;-66
2023/10/17 12:16:54;;;;;;;1.60;0.73;;;;;;;;;;5036375;28;20045;-72
2023/10/17 12:19:21;;;;;;;3.28;1.40;;;;;;;;;;5044075;28;20049;-70
2023/10/17 12:21:48;;;;;;;1.85;0.90;;;;;;;;;;5036995;28;20145;-71
2023/10/17 12:24:24;;;;;;;2.72;0.70;;;;;;;;;;5041002;28;20085;-71
2023/10/17 12:26:51;;;;;;;3.35;1.00;;;;;;;;;;5038467;28;20052;-72
2023/10/17 12:29:19;;;;;;;2.33;1.08;;;;;;;;;;5040114;28;20057;-72
2023/10/17 12:31:45;;;;;;;3.05;0.93;;;;;;;;;;5029062;28;20073;-72
2023/10/17 12:34:15;;;;;;;2.15;0.80;;;;;;;;;;5032193;28;20095;-71
2023/10/17 12:36:41;;;;;;;2.80;0.90;;;;;;;;;;5031319;28;20504;-66
2023/10/17 12:39:08;;;;;;;1.67;0.85;;;;;;;;;;5038881;28;20050;-67
2023/10/17 12:41:35;;;;;;;3.97;0.85;;;;;;;;;;5037052;28;20096;-65
2023/10/17 12:44:02;;;;;;;2.15;0.93;;;;;;;;;;5042046;28;20141;-69
2023/10/17 12:46:28;;;;;;;5.18;1.10;;;;;;;;;;5030675;28;20807;-66
2023/10/17 12:48:55;;;;;;;3.83;0.93;;;;;;;;;;5031223;28;20789;-65
2023/10/17 12:51:23;;;;;;;1.67;0.75;;;;;;;;;;5035988;28;20037;-70
2023/10/17 12:53:49;;;;;;;3.05;1.27;;;;;;;;;;5040506;28;20100;-71
2023/10/17 12:56:17;;;;;;;6.20;1.08;;;;;;;;;;5044587;28;20467;-71
2023/10/17 12:58:44;;;;;;;3.35;0.93;;;;;;;;;;5033990;28;20049;-70
2023/10/17 13:01:13;;;;;;;1.83;0.73;;;;;;;;;;5040503;28;20038;-70
2023/10/17 13:03:40;;;;;;;6.60;1.10;;;;;;;;;;5036761;28;20116;-70
2023/10/17 13:06:08;;;;;;;1.80;0.93;;;;;;;;;;5031062;28;20048;-65
2023/10/17 13:08:35;;;;;;;3.30;1.15;;;;;;;;;;5030704;28;20080;-69
2023/10/17 13:11:02;;;;;;;3.05;0.98;;;;;;;;;;5041126;28;20107;-72
2023/10/17 13:13:30;;;;;;;3.20;0.50;;;;;;;;;;5034172;28;20092;-68
2023/10/17 13:15:57;;;;;;;2.53;0.95;;;;;;;;;;5035711;28;20045;-72
2023/10/17 13:18:25;;;;;;;7.13;2.72;;;;;;;;;;5035297;28;20061;-69
2023/10/17 13:20:57;;;;;;;1.40;0.75;;;;;;;;;;5028252;28;20045;-70
2023/10/17 13:23:37;;;;;;;3.47;0.68;;;;;;;;;;5036530;28;20158;-75
2023/10/17 13:26:07;;;;;;;3.35;0.80;;;;;;;;;;5029718;28;20056;-73
2023/10/17 13:28:34;;;;;;;4.00;0.80;;;;;;;;;;5045443;28;20051;-73
2023/10/17 13:31:07;;;;;;;5.22;1.08;;;;;;;;;;5034524;28;20033;-76
2023/10/17 13:33:34;;;;;;;5.80;0.93;;;;;;;;;;5030329;28;20124;-77
2023/10/17 13:36:01;;;;;;;2.08;0.93;;;;;;;;;;5038981;28;20040;-76
2023/10/17 13:38:27;;;;;;;2.53;0.65;;;;;;;;;;5048182;28;20548;-77
2023/10/17 13:41:01;;;;;;;1.83;0.55;;;;;;;;;;5034706;28;20768;-71
2023/10/17 13:43:28;;;;;;;3.40;0.93;;;;;;;;;;5043849;28;20052;-74
2023/10/17 13:45:55;;;;;;;3.40;0.82;;;;;;;;;;5030038;28;20424;-74
2023/10/17 13:48:22;;;;;;;3.60;1.40;;;;;;;;;;5031100;28;20553;-71
2023/10/17 13:50:48;;;;;;;1.40;0.70;;;;;;;;;;5029700;28;20126;-76
2023/10/17 13:53:16;;;;;;;2.72;0.73;;;;;;;;;;5032151;28;20132;-72
2023/10/17 13:55:45;;;;;;;1.50;0.93;;;;;;;;;;5028270;28;20080;-71
2023/10/17 13:58:12;;;;;;;3.08;1.35;;;;;;;;;;5031780;28;20080;-75
2023/10/17 14:00:51;;;;;;;4.22;0.65;;;;;;;;;;5034078;28;20128;-77
2023/10/17 14:03:21;;;;;;;2.83;0.90;;;;;;;;;;5036892;28;20529;-73
2023/10/17 14:05:49;;;;;;;1.73;0.65;;;;;;;;;;5033423;28;20129;-77
2023/10/17 14:08:17;;;;;;;3.22;0.70;;;;;;;;;;5038326;28;20072;-71
2023/10/17 14:10:46;;;;;;;10.00;3.65;;;;;;;;;;5026341;28;20045;-73
2023/10/17 14:13:15;;;;;;;3.40;0.80;;;;;;;;;;5034254;28;20041;-74
2023/10/17 14:15:41;;;;;;;2.67;0.90;;;;;;;;;;5043628;28;20133;-73
2023/10/17 14:18:15;;;;;;;12.40;3.28;;;;;;;;;;5028578;28;20052;-76
2023/10/17 14:23:30;;;;;;;1.10;0.75;;;;;;;;;;5036242;28;20136;-74
2023/10/17 14:26:09;;;;;;;4.50;0.70;;;;;;;;;;5033042;28;20068;-74
2023/10/17 14:28:37;;;;;;;3.38;0.80;;;;;;;;;;5029896;28;20048;-72
2023/10/17 14:31:05;;;;;;;2.55;0.85;;;;;;;;;;5038789;28;20045;-72
2023/10/17 14:33:32;;;;;;;1.88;0.70;;;;;;;;;;5035857;28;20049;-72
2023/10/17 14:36:03;;;;;;;4.28;0.80;;;;;;;;;;5025657;28;20044;-70
2023/10/17 14:38:29;;;;;;;3.67;0.73;;;;;;;;;;5025134;28;20053;-71
2023/10/17 14:40:58;;;;;;;3.70;0.80;;;;;;;;;;5028535;28;20053;-73
2023/10/17 14:43:27;;;;;;;2.20;0.90;;;;;;;;;;5026667;28;20049;-74
2023/10/17 14:45:54;;;;;;;3.88;1.17;;;;;;;;;;5027846;28;20132;-73
2023/10/17 14:48:21;;;;;;;1.27;0.70;;;;;;;;;;5026396;28;20076;-73
2023/10/17 14:50:49;;;;;;;1.77;0.80;;;;;;;;;;5034635;28;20072;-72
2023/10/17 14:53:19;;;;;;;5.55;0.70;;;;;;;;;;5027836;28;20045;-71
2023/10/17 14:55:57;;;;;;;1.75;0.70;;;;;;;;;;5025275;28;20293;-72
2023/10/17 14:58:23;;;;;;;3.33;0.80;;;;;;;;;;5036476;28;20127;-73
2023/10/17 15:00:53;;;;;;;1.95;0.90;;;;;;;;;;5025340;28;20129;-74
2023/10/17 15:03:20;;;;;;;6.57;0.70;;;;;;;;;;5029936;28;20711;-74
2023/10/17 15:05:46;;;;;;;3.50;0.82;;;;;;;;;;5027451;28;20053;-73
2023/10/17 15:08:14;;;;;;;29.38;6.30;;;;;;;;;;5032665;28;20549;-78
2023/10/17 15:10:40;;;;;;;15.55;2.00;;;;;;;;;;5030813;28;20147;-74
2023/10/17 15:13:11;;;;;;;13.82;2.25;;;;;;;;;;5034363;28;20053;-71
2023/10/17 15:15:37;;;;;;;4.22;1.30;;;;;;;;;;5033074;28;20051;-75
2023/10/17 15:18:04;;;;;;;3.00;1.00;;;;;;;;;;5030914;28;20565;-75
2023/10/17 15:20:31;;;;;;;4.53;2.10;;;;;;;;;;5028234;28;20045;-76
2023/10/17 15:22:58;;;;;;;5.32;1.20;;;;;;;;;;5027684;28;20395;-77
2023/10/17 15:25:24;;;;;;;4.38;1.10;;;;;;;;;;5028941;28;20045;-75
2023/10/17 15:27:52;;;;;;;2.08;0.80;;;;;;;;;;5029546;28;20467;-72
2023/10/17 15:30:21;;;;;;;2.72;1.15;;;;;;;;;;5028024;28;20053;-73
2023/10/17 15:33:02;;;;;;;4.32;1.25;;;;;;;;;;5028918;28;20124;-69
2023/10/17 15:35:31;;;;;;;4.43;1.05;;;;;;;;;;5034964;28;20049;-71
2023/10/17 15:37:58;;;;;;;2.35;1.15;;;;;;;;;;5027445;28;20127;-72
2023/10/17 15:40:25;;;;;;;3.03;1.00;;;;;;;;;;5025193;28;20053;-72
2023/10/17 15:42:52;;;;;;;3.15;1.50;;;;;;;;;;5033548;28;20045;-69
2023/10/17 15:45:19;;;;;;;4.93;1.10;;;;;;;;;;5036489;28;20470;-71
2023/10/17 15:47:48;;;;;;;5.45;0.93;;;;;;;;;;5024094;28;20056;-70
2023/10/17 15:50:17;;;;;;;3.40;1.02;;;;;;;;;;5025547;28;20084;-71
2023/10/17 15:52:44;;;;;;;2.83;1.38;;;;;;;;;;5026349;28;20038;-69
2023/10/17 15:55:15;;;;;;;3.47;1.00;;;;;;;;;;5029273;28;20047;-70
2023/10/17 15:57:45;;;;;;;5.22;1.67;;;;;;;;;;5023655;28;20037;-71
2023/10/17 16:00:19;;;;;;;5.43;1.77;;;;;;;;;;5038389;28;20414;-72
2023/10/17 16:02:46;;;;;;;4.18;2.25;;;;;;;;;;5031583;28;20088;-70
2023/10/17 16:05:13;;;;;;;7.30;3.30;;;;;;;;;;5031557;28;20404;-70
2023/10/17 16:07:41;;;;;;;5.88;2.60;;;;;;;;;;5030440;28;20140;-68
2023/10/17 16:10:08;;;;;;;3.95;2.10;;;;;;;;;;5029455;28;20075;-69
2023/10/17 16:12:36;;;;;;;5.97;1.67;;;;;;;;;;5027962;28;20091;-70
2023/10/17 16:15:03;;;;;;;3.45;1.45;;;;;;;;;;5028940;28;20049;-73
2023/10/17 16:17:30;;;;;;;2.78;1.40;;;;;;;;;;5024239;28;20451;-71
2023/10/17 16:19:56;;;;;;;5.28;1.45;;;;;;;;;;5030241;28;20107;-70
2023/10/17 16:22:23;;;;;;;2.60;1.52;;;;;;;;;;5029601;28;20172;-69
2023/10/17 16:24:49;;;;;;;2.63;1.67;;;;;;;;;;5029957;28;20128;-70
2023/10/17 16:27:16;;;;;;;7.32;1.65;;;;;;;;;;5033832;28;20053;-71
2023/10/17 16:29:43;;;;;;;5.28;1.63;;;;;;;;;;5052039;28;20452;-71
2023/10/17 16:32:11;;;;;;;4.00;2.05;;;;;;;;;;5035405;28;20072;-65
2023/10/17 16:34:37;;;;;;;5.85;1.52;;;;;;;;;;5031474;28;20570;-69
2023/10/17 16:37:04;;;;;;;5.20;1.50;;;;;;;;;;5036459;28;20049;-68
2023/10/17 16:39:30;;;;;;;3.95;1.80;;;;;;;;;;5034337;28;20517;-72
2023/10/17 16:41:57;;;;;;;4.50;2.10;;;;;;;;;;5042051;28;20540;-68
2023/10/17 16:44:24;;;;;;;4.38;2.47;;;;;;;;;;5032052;28;20140;-71
2023/10/17 16:46:50;;;;;;;2.58;1.50;;;;;;;;;;5031610;28;20125;-70
2023/10/17 16:49:17;;;;;;;12.63;2.90;;;;;;;;;;5038025;28;20538;-70
2023/10/17 16:51:43;;;;;;;8.38;2.63;;;;;;;;;;5037477;28;20064;-68
2023/10/17 16:54:10;;;;;;;8.63;1.70;;;;;;;;;;5038307;28;20056;-68
2023/10/17 16:56:36;;;;;;;6.70;2.28;;;;;;;;;;5027504;28;20064;-68